Colfax, West Virginia
Current Conditions -  °F | °C
As of 4:53 PM on Wednesday 22 Oct 2014 (Local Time) from KCKB Reporting Station
Overcast Overcast  
Wind Chill: 45°   Ceiling: 1600
Heat Index: 48°   Visibility: 10mi
Dew Point: 44°   Wind: 6mph
Humidity: 86%   Direction: 330°NNW
Pressure: 30.16"   Gusts: NA
Location:  39.43°N, 80.13°W
Report Text: KCKB 222053Z 33005KT 10SM OVC016 09/07 A3016 RMK AO2 SLP212 60000 T00890067 53004
Loading
Personal Weather Stations






























Interactive Weather Map
Tropical Storm Tracking
New forecast layout! Learn more

10-Day Weather Forecast

Advertisements
Track Severe Weather on mobile